createdAt,value
2019-04-10T00:00:39.162Z,52.56
2019-04-10T00:03:08.277Z,52.36
2019-04-10T00:05:36.586Z,52.43
2019-04-10T00:08:04.766Z,52.66
2019-04-10T00:10:33.994Z,52.30
2019-04-10T00:13:02.462Z,52.37
2019-04-10T00:15:30.683Z,52.59
2019-04-10T00:17:59.765Z,52.48
2019-04-10T00:20:28.805Z,52.60
2019-04-10T00:22:56.940Z,52.61
2019-04-10T00:25:24.854Z,52.65
2019-04-10T00:27:53.005Z,52.87
2019-04-10T00:30:21.030Z,52.76
2019-04-10T00:32:49.221Z,52.50
2019-04-10T00:35:17.210Z,52.54
2019-04-10T00:37:45.705Z,52.47
2019-04-10T00:40:13.738Z,52.44
2019-04-10T00:42:41.580Z,52.36
2019-04-10T00:45:09.722Z,52.04
2019-04-10T00:47:38.065Z,52.19
2019-04-10T00:50:06.458Z,52.35
2019-04-10T00:52:36.659Z,52.57
2019-04-10T00:55:05.718Z,52.43
2019-04-10T00:57:33.857Z,52.27
2019-04-10T01:00:01.926Z,52.11
2019-04-10T01:02:29.886Z,52.01
2019-04-10T01:04:58.458Z,52.03
2019-04-10T01:07:35.692Z,52.20
2019-04-10T01:09:56.393Z,52.15
2019-04-10T01:12:24.461Z,52.31
2019-04-10T01:14:52.431Z,52.08
2019-04-10T01:17:20.561Z,51.94
2019-04-10T01:19:50.277Z,51.92
2019-04-10T01:22:19.033Z,51.88
2019-04-10T01:24:48.453Z,51.84
2019-04-10T01:27:16.500Z,51.71
2019-04-10T01:29:44.568Z,51.75
2019-04-10T01:32:12.604Z,51.58
2019-04-10T01:34:41.281Z,51.58
2019-04-10T01:37:10.245Z,51.60
2019-04-10T01:39:38.253Z,51.46
2019-04-10T01:42:08.182Z,51.64
2019-04-10T01:44:36.463Z,51.07
2019-04-10T01:47:04.760Z,51.47
2019-04-10T01:49:33.583Z,51.64
2019-04-10T01:52:01.823Z,51.38
2019-04-10T01:54:29.883Z,51.05
2019-04-10T01:56:57.889Z,50.92
2019-04-10T01:59:27.267Z,50.60
2019-04-10T02:02:00.990Z,50.49
2019-04-10T02:04:29.176Z,50.59
2019-04-10T02:06:57.968Z,50.29
2019-04-10T02:09:26.040Z,50.56
2019-04-10T02:11:54.467Z,49.48
2019-04-10T02:14:23.113Z,49.33
2019-04-10T02:16:51.554Z,49.67
2019-04-10T02:19:19.681Z,49.62
2019-04-10T02:21:47.811Z,49.47
2019-04-10T02:24:16.706Z,48.98
2019-04-10T02:26:45.631Z,49.19
2019-04-10T02:29:13.856Z,49.03
2019-04-10T02:31:41.792Z,48.79
2019-04-10T02:34:09.801Z,49.02
2019-04-10T02:36:38.503Z,48.97
2019-04-10T02:39:17.807Z,48.93
2019-04-10T02:41:38.633Z,48.62
2019-04-10T02:44:07.910Z,48.76
2019-04-10T02:46:36.886Z,48.57
2019-04-10T02:49:06.215Z,48.62
2019-04-10T02:51:35.164Z,48.69
2019-04-10T02:54:05.242Z,48.61
2019-04-10T02:56:33.597Z,48.44
2019-04-10T02:59:02.843Z,48.83
2019-04-10T03:01:31.585Z,48.87
2019-04-10T03:04:01.313Z,48.64
2019-04-10T03:06:31.013Z,48.62
2019-04-10T03:09:14.711Z,48.55
2019-04-10T03:11:31.092Z,48.61
2019-04-10T03:13:59.945Z,48.53
2019-04-10T03:16:29.171Z,48.47
2019-04-10T03:18:57.704Z,48.73
2019-04-10T03:21:25.612Z,48.64
2019-04-10T03:23:53.818Z,48.49
2019-04-10T03:26:21.940Z,48.57
2019-04-10T03:28:49.885Z,48.77
2019-04-10T03:31:19.874Z,48.56
2019-04-10T03:34:13.540Z,48.62
2019-04-10T03:36:41.091Z,48.55
2019-04-10T03:39:10.595Z,48.50
2019-04-10T03:41:40.126Z,48.32
2019-04-10T03:44:08.239Z,48.39
2019-04-10T03:46:38.716Z,48.75
2019-04-10T03:49:06.339Z,48.70
2019-04-10T03:51:34.252Z,48.68
2019-04-10T03:54:02.641Z,48.54
2019-04-10T03:56:31.813Z,48.58
2019-04-10T03:59:06.755Z,48.71
2019-04-10T04:01:35.380Z,49.03
2019-04-10T04:04:04.968Z,48.82
2019-04-10T04:06:33.425Z,49.04
2019-04-10T04:09:08.919Z,49.05
2019-04-10T04:11:31.445Z,48.95
2019-04-10T04:13:59.840Z,49.07
2019-04-10T04:16:27.903Z,49.13
2019-04-10T04:18:55.912Z,49.35
2019-04-10T04:21:23.833Z,49.45
2019-04-10T04:23:51.863Z,49.70
2019-04-10T04:26:21.163Z,49.90
2019-04-10T04:28:49.461Z,49.72
2019-04-10T04:31:18.106Z,49.50
2019-04-10T04:33:46.913Z,49.69
2019-04-10T04:36:15.944Z,49.58
2019-04-10T04:38:45.051Z,49.65
2019-04-10T04:41:13.362Z,49.49
2019-04-10T04:43:43.406Z,49.63
2019-04-10T04:46:12.023Z,49.71
2019-04-10T04:48:41.000Z,49.92
2019-04-10T04:51:09.339Z,49.77
2019-04-10T04:53:37.327Z,49.84
2019-04-10T04:56:05.337Z,49.83
2019-04-10T04:58:33.979Z,49.64
2019-04-10T05:01:04.334Z,50.15
2019-04-10T05:03:33.405Z,50.10
2019-04-10T05:06:01.861Z,50.28
2019-04-10T05:08:30.227Z,50.42
2019-04-10T05:10:58.470Z,50.49
2019-04-10T05:13:26.445Z,50.53
2019-04-10T05:15:55.395Z,50.22
2019-04-10T05:18:23.592Z,50.44
2019-04-10T05:20:52.411Z,50.23
2019-04-10T05:23:22.272Z,50.21
2019-04-10T05:25:50.402Z,50.58
2019-04-10T05:28:20.301Z,50.64
2019-04-10T05:30:48.362Z,50.44
2019-04-10T05:33:16.467Z,50.18
2019-04-10T05:35:45.259Z,50.42
2019-04-10T05:38:13.835Z,50.07
2019-04-10T05:40:42.252Z,50.03
2019-04-10T05:43:11.411Z,50.75
2019-04-10T05:45:40.496Z,50.28
2019-04-10T05:48:08.818Z,50.20
2019-04-10T05:50:37.822Z,50.07
2019-04-10T05:53:05.973Z,50.08
2019-04-10T05:55:33.898Z,49.89
2019-04-10T05:58:01.868Z,50.02
2019-04-10T06:00:29.933Z,49.88
2019-04-10T06:02:58.466Z,49.77
2019-04-10T06:05:35.732Z,49.84
2019-04-10T06:08:03.784Z,50.02
2019-04-10T06:10:32.240Z,50.04
2019-04-10T06:13:00.553Z,50.08
2019-04-10T06:15:28.801Z,50.07
2019-04-10T06:17:56.721Z,50.05
2019-04-10T06:20:25.072Z,50.07
2019-04-10T06:22:54.884Z,50.26
2019-04-10T06:25:24.781Z,50.05
2019-04-10T06:27:53.068Z,49.97
2019-04-10T06:30:21.060Z,50.04
2019-04-10T06:32:49.103Z,50.45
2019-04-10T06:35:17.313Z,50.20
2019-04-10T06:37:46.314Z,50.29
2019-04-10T06:40:19.663Z,50.33
2019-04-10T06:42:50.236Z,51.14
2019-04-10T06:45:15.544Z,51.13
2019-04-10T06:47:44.521Z,51.25
2019-04-10T06:50:13.048Z,50.82
2019-04-10T06:52:41.050Z,51.07
2019-04-10T06:55:09.313Z,51.24
2019-04-10T06:57:47.863Z,51.19
2019-04-10T07:00:15.274Z,51.42
2019-04-10T07:02:44.275Z,51.90
2019-04-10T07:05:13.871Z,51.41
2019-04-10T07:07:51.366Z,51.41
2019-04-10T07:10:23.774Z,51.41
2019-04-10T07:12:43.872Z,51.25
2019-04-10T07:15:12.516Z,51.68
2019-04-10T07:17:41.893Z,51.77
2019-04-10T07:20:10.850Z,51.37
2019-04-10T07:22:44.579Z,51.41
2019-04-10T07:25:11.146Z,51.63
2019-04-10T07:27:40.156Z,51.34
2019-04-10T07:30:09.825Z,51.23
2019-04-10T07:32:42.072Z,51.02
2019-04-10T07:35:08.981Z,51.02
2019-04-10T07:37:37.217Z,51.12
2019-04-10T07:40:06.184Z,51.31
2019-04-10T07:42:38.423Z,51.21
2019-04-10T07:45:04.747Z,51.14
2019-04-10T07:47:32.612Z,51.23
2019-04-10T07:50:02.099Z,51.33
2019-04-10T07:52:30.753Z,51.09
2019-04-10T07:54:58.823Z,51.12
2019-04-10T07:57:26.805Z,51.16
2019-04-10T07:59:54.797Z,51.00
2019-04-10T08:02:23.334Z,51.02
2019-04-10T08:04:51.677Z,51.07
2019-04-10T08:07:29.436Z,51.11
2019-04-10T08:09:49.834Z,50.77
2019-04-10T08:12:18.977Z,51.11
2019-04-10T08:14:47.116Z,50.72
2019-04-10T08:17:16.285Z,50.49
2019-04-10T08:19:45.266Z,50.69
2019-04-10T08:22:14.252Z,50.54
2019-04-10T08:24:42.668Z,50.52
2019-04-10T08:27:11.711Z,50.42
2019-04-10T08:29:40.876Z,49.90
2019-04-10T08:32:09.866Z,50.04
2019-04-10T08:34:38.280Z,50.00
2019-04-10T08:37:06.559Z,50.13
2019-04-10T08:39:41.157Z,50.29
2019-04-10T08:42:06.403Z,50.26
2019-04-10T08:44:34.697Z,50.08
2019-04-10T08:47:02.689Z,50.40
2019-04-10T08:49:30.915Z,50.08
2019-04-10T08:51:59.869Z,49.94
2019-04-10T08:54:28.137Z,49.96
2019-04-10T08:56:56.887Z,49.98
2019-04-10T08:59:25.053Z,49.92
2019-04-10T09:01:54.034Z,49.71
2019-04-10T09:04:22.672Z,50.18
2019-04-10T09:06:51.534Z,49.66
2019-04-10T09:09:19.486Z,49.74
2019-04-10T09:11:47.420Z,49.57
2019-04-10T09:14:15.255Z,49.47
2019-04-10T09:16:43.196Z,49.27
2019-04-10T09:19:11.971Z,49.41
2019-04-10T09:21:41.710Z,49.25
2019-04-10T09:24:10.238Z,48.95
2019-04-10T09:26:38.887Z,48.91
2019-04-10T09:29:06.916Z,49.15
2019-04-10T09:31:35.354Z,49.12
2019-04-10T09:34:03.814Z,49.01
2019-04-10T09:36:31.859Z,48.84
2019-04-10T09:38:59.797Z,48.46
2019-04-10T09:41:28.093Z,48.56
2019-04-10T09:43:56.292Z,48.75
2019-04-10T09:46:24.722Z,48.52
2019-04-10T09:48:52.645Z,48.57
2019-04-10T09:51:21.491Z,48.37
2019-04-10T09:53:49.572Z,47.81
2019-04-10T09:56:17.563Z,47.95
2019-04-10T09:58:45.508Z,47.89
2019-04-10T10:01:15.850Z,47.65
2019-04-10T10:03:44.453Z,47.54
2019-04-10T10:06:23.480Z,47.63
2019-04-10T10:08:43.478Z,47.89
2019-04-10T10:11:11.691Z,47.67
2019-04-10T10:13:39.626Z,47.80
2019-04-10T10:16:08.516Z,47.72
2019-04-10T10:18:37.316Z,47.51
2019-04-10T10:21:05.641Z,47.37
2019-04-10T10:23:33.966Z,47.63
2019-04-10T10:26:01.910Z,47.02
2019-04-10T10:28:30.989Z,47.00
2019-04-10T10:30:59.918Z,47.52
2019-04-10T10:33:28.086Z,47.27
2019-04-10T10:35:56.142Z,47.24
2019-04-10T10:38:25.182Z,47.00
2019-04-10T10:40:53.335Z,47.30
2019-04-10T10:43:22.575Z,47.25
2019-04-10T10:45:51.273Z,47.28
2019-04-10T10:48:19.838Z,46.71
2019-04-10T10:50:47.974Z,46.94
2019-04-10T10:53:16.411Z,47.10
2019-04-10T10:55:45.505Z,47.13
2019-04-10T10:58:13.683Z,46.90
2019-04-10T11:00:43.071Z,46.83
2019-04-10T11:03:11.907Z,46.37
2019-04-10T11:05:40.139Z,46.22
2019-04-10T11:08:08.206Z,46.71
2019-04-10T11:10:36.411Z,46.71
2019-04-10T11:13:04.775Z,46.58
2019-04-10T11:15:37.759Z,46.37
2019-04-10T11:18:06.482Z,46.08
2019-04-10T11:20:36.412Z,45.48
2019-04-10T11:23:06.151Z,46.11
2019-04-10T11:25:35.830Z,45.76
2019-04-10T11:28:05.834Z,45.60
2019-04-10T11:30:34.687Z,45.77
2019-04-10T11:33:03.569Z,45.60
2019-04-10T11:35:31.996Z,45.41
2019-04-10T11:38:02.536Z,45.83
2019-04-10T11:40:31.649Z,45.50
2019-04-10T11:43:02.818Z,45.82
2019-04-10T11:45:37.976Z,45.54
2019-04-10T11:48:01.708Z,45.52
2019-04-10T11:50:30.050Z,45.56
2019-04-10T11:53:00.381Z,45.67
2019-04-10T11:55:29.741Z,45.64
2019-04-10T11:57:59.915Z,45.76
2019-04-10T12:00:47.298Z,45.12
2019-04-10T12:03:10.244Z,45.27
2019-04-10T12:05:41.141Z,45.49
2019-04-10T12:08:33.616Z,45.14
2019-04-10T12:13:10.206Z,46.16
2019-04-10T12:15:38.653Z,45.68
2019-04-10T12:18:06.889Z,45.47
2019-04-10T12:20:35.447Z,45.47
2019-04-10T12:23:03.648Z,45.66
2019-04-10T12:25:32.602Z,45.67
2019-04-10T12:28:01.310Z,45.23
2019-04-10T12:30:29.540Z,45.28
2019-04-10T12:32:57.572Z,45.44
2019-04-10T12:35:25.834Z,45.01
2019-04-10T12:38:02.248Z,44.92
2019-04-10T12:40:23.827Z,45.19
2019-04-10T12:42:52.406Z,44.92
2019-04-10T12:45:20.669Z,44.74
2019-04-10T12:47:48.714Z,44.93
2019-04-10T12:50:16.777Z,44.99
2019-04-10T12:52:45.065Z,44.56
2019-04-10T12:55:14.474Z,44.56
2019-04-10T12:57:43.461Z,44.57
2019-04-10T13:00:18.125Z,44.83
2019-04-10T13:02:48.345Z,44.95
2019-04-10T13:05:18.876Z,44.41
2019-04-10T13:07:47.728Z,44.21
2019-04-10T13:10:15.910Z,44.26
2019-04-10T13:12:45.170Z,43.29
2019-04-10T13:15:13.451Z,43.51
2019-04-10T13:17:42.768Z,43.87
2019-04-10T13:20:22.127Z,43.83
2019-04-10T13:22:50.683Z,43.68
2019-04-10T13:25:18.957Z,43.54
2019-04-10T13:27:47.333Z,43.38
2019-04-10T13:30:16.594Z,43.66
2019-04-10T13:32:44.720Z,43.91
2019-04-10T13:35:13.672Z,43.84
2019-04-10T13:37:43.637Z,43.91
2019-04-10T13:40:13.174Z,43.29
2019-04-10T13:42:41.209Z,43.54
2019-04-10T13:45:09.432Z,43.79
2019-04-10T13:47:38.583Z,43.43
2019-04-10T13:50:08.486Z,43.10
2019-04-10T13:52:38.715Z,43.43
2019-04-10T13:55:10.078Z,43.45
2019-04-10T13:57:39.224Z,43.42
2019-04-10T14:00:09.624Z,43.68
2019-04-10T14:02:37.768Z,43.89
2019-04-10T14:05:08.083Z,43.60
2019-04-10T14:07:36.277Z,43.98
2019-04-10T14:10:07.102Z,43.50
2019-04-10T14:12:35.405Z,43.70
2019-04-10T14:15:04.895Z,43.25
2019-04-10T14:17:33.372Z,43.68
2019-04-10T14:20:02.857Z,42.91
2019-04-10T14:22:31.537Z,43.23
2019-04-10T14:24:59.608Z,43.71
2019-04-10T14:27:28.499Z,43.14
2019-04-10T14:29:58.499Z,43.37
2019-04-10T14:32:31.493Z,43.12
2019-04-10T14:35:01.032Z,42.98
2019-04-10T14:37:29.577Z,43.45
2019-04-10T14:39:57.932Z,43.54
2019-04-10T14:42:26.620Z,43.81
2019-04-10T14:44:55.105Z,44.04
2019-04-10T14:47:23.986Z,44.09
2019-04-10T14:49:54.043Z,43.92
2019-04-10T14:52:23.287Z,43.75
2019-04-10T14:54:52.196Z,44.00
2019-04-10T14:57:20.972Z,43.94
2019-04-10T14:59:49.365Z,43.94
2019-04-10T15:02:18.900Z,43.78
2019-04-10T15:04:46.976Z,44.10
2019-04-10T15:07:15.140Z,43.95
2019-04-10T15:09:43.244Z,44.04
2019-04-10T15:12:12.184Z,44.09
2019-04-10T15:14:40.899Z,43.92
2019-04-10T15:17:09.509Z,44.08
2019-04-10T15:19:37.859Z,44.10
2019-04-10T15:22:05.900Z,43.77
2019-04-10T15:24:34.004Z,44.08
2019-04-10T15:27:02.724Z,44.44
2019-04-10T15:29:32.349Z,44.38
2019-04-10T15:32:00.478Z,44.59
2019-04-10T15:34:28.517Z,44.48
2019-04-10T15:36:56.530Z,44.46
2019-04-10T15:39:32.296Z,44.65
2019-04-10T15:41:55.307Z,45.49
2019-04-10T15:44:24.283Z,45.12
2019-04-10T15:46:53.306Z,44.32
2019-04-10T15:49:21.459Z,44.50
2019-04-10T15:51:49.793Z,44.75
2019-04-10T15:54:18.130Z,44.61
2019-04-10T15:56:46.570Z,44.70
2019-04-10T15:59:28.187Z,44.42
2019-04-10T16:01:57.320Z,44.69
2019-04-10T16:04:25.565Z,44.99
2019-04-10T16:06:53.747Z,44.23
2019-04-10T16:09:21.902Z,44.63
2019-04-10T16:12:02.682Z,44.54
2019-04-10T16:14:32.068Z,45.37
2019-04-10T16:17:22.235Z,44.77
2019-04-10T16:20:19.653Z,44.57
2019-04-10T16:23:08.086Z,44.71
2019-04-10T16:25:38.743Z,44.50
2019-04-10T16:28:11.087Z,44.64
2019-04-10T16:30:43.264Z,44.55
2019-04-10T16:33:11.288Z,44.17
2019-04-10T16:35:40.075Z,44.50
2019-04-10T16:38:08.575Z,44.33
2019-04-10T16:40:38.166Z,44.46
2019-04-10T16:43:07.809Z,44.18
2019-04-10T16:45:36.214Z,44.24
2019-04-10T16:48:04.616Z,44.03
2019-04-10T16:50:32.718Z,44.48
2019-04-10T16:53:01.309Z,44.03
2019-04-10T16:55:29.647Z,44.23
2019-04-10T16:57:57.658Z,44.41
2019-04-10T17:00:26.933Z,44.11
2019-04-10T17:02:55.013Z,44.29
2019-04-10T17:05:23.030Z,44.47
2019-04-10T17:07:51.657Z,44.24
2019-04-10T17:10:24.361Z,44.42
2019-04-10T17:12:50.358Z,44.20
2019-04-10T17:15:18.318Z,44.14
2019-04-10T17:17:46.515Z,44.60
2019-04-10T17:20:16.008Z,44.65
2019-04-10T17:22:47.247Z,44.69
2019-04-10T17:25:14.207Z,45.00
2019-04-10T17:27:42.334Z,44.75
2019-04-10T17:30:11.726Z,44.91
2019-04-10T17:32:52.253Z,45.01
2019-04-10T17:35:21.351Z,44.97
2019-04-10T17:37:49.914Z,45.06
2019-04-10T17:40:31.090Z,45.07
2019-04-10T17:42:49.478Z,45.04
2019-04-10T17:45:18.512Z,45.12
2019-04-10T17:47:47.243Z,45.24
2019-04-10T17:50:16.595Z,45.23
2019-04-10T17:52:45.174Z,45.43
2019-04-10T17:55:13.660Z,45.40
2019-04-10T17:57:44.612Z,45.32
2019-04-10T18:00:53.840Z,45.34
2019-04-10T18:03:25.372Z,45.44
2019-04-10T18:05:55.143Z,45.40
2019-04-10T18:08:26.393Z,45.58
2019-04-10T18:10:55.423Z,45.50
2019-04-10T18:13:24.492Z,45.47
2019-04-10T18:15:53.800Z,45.57
2019-04-10T18:18:22.353Z,45.74
2019-04-10T18:20:51.158Z,45.74
2019-04-10T18:23:19.666Z,45.69
2019-04-10T18:25:47.728Z,45.78
2019-04-10T18:28:15.722Z,45.73
2019-04-10T18:30:44.012Z,45.82
2019-04-10T18:33:12.532Z,45.75
2019-04-10T18:35:40.816Z,45.79
2019-04-10T18:38:09.093Z,45.73
2019-04-10T18:40:37.224Z,45.67
2019-04-10T18:43:05.354Z,45.71
2019-04-10T18:45:33.717Z,45.78
2019-04-10T18:48:02.782Z,45.88
2019-04-10T18:50:34.116Z,45.94
2019-04-10T18:53:02.154Z,45.93
2019-04-10T18:55:30.167Z,47.39
2019-04-10T18:57:59.131Z,46.53
2019-04-10T19:00:46.205Z,46.36
2019-04-10T19:03:50.140Z,46.30
2019-04-10T19:06:18.994Z,46.30
2019-04-10T19:09:00.067Z,46.59
2019-04-10T19:11:22.779Z,46.52
2019-04-10T19:13:47.275Z,46.57
2019-04-10T19:16:17.377Z,46.59
2019-04-10T19:18:46.137Z,46.54
2019-04-10T19:21:15.540Z,46.59
2019-04-10T19:23:43.763Z,46.62
2019-04-10T19:26:13.947Z,46.59
2019-04-10T19:28:45.092Z,46.64
2019-04-10T19:31:19.453Z,46.67
2019-04-10T19:33:44.630Z,46.61
2019-04-10T19:36:12.756Z,46.63
2019-04-10T19:38:41.206Z,46.84
2019-04-10T19:41:21.039Z,46.77
2019-04-10T19:43:40.095Z,46.67
2019-04-10T19:46:09.399Z,46.56
2019-04-10T19:48:37.472Z,46.53
2019-04-10T19:51:05.838Z,46.52
2019-04-10T19:53:33.976Z,50.80
2019-04-10T19:56:02.429Z,52.41
2019-04-10T19:58:32.191Z,52.29
2019-04-10T20:01:01.116Z,48.44
2019-04-10T20:03:29.927Z,47.71
2019-04-10T20:05:58.433Z,47.38
2019-04-10T20:08:27.885Z,47.23
2019-04-10T20:10:56.325Z,47.12
2019-04-10T20:13:24.861Z,47.43
2019-04-10T20:15:53.147Z,47.56
2019-04-10T20:18:21.583Z,47.69
2019-04-10T20:20:49.645Z,47.50
2019-04-10T20:23:18.146Z,47.37
2019-04-10T20:25:48.410Z,47.35
2019-04-10T20:28:16.609Z,47.23
2019-04-10T20:30:44.652Z,46.54
2019-04-10T20:33:12.671Z,47.26
2019-04-10T20:35:40.762Z,47.00
2019-04-10T20:38:09.337Z,46.92
2019-04-10T20:40:38.104Z,46.81
2019-04-10T20:43:06.894Z,46.94
2019-04-10T20:45:35.763Z,46.75
2019-04-10T20:48:06.466Z,46.91
2019-04-10T20:50:34.843Z,46.89
2019-04-10T20:53:03.972Z,46.33
2019-04-10T20:55:32.156Z,46.37
2019-04-10T20:58:00.099Z,46.53
2019-04-10T21:00:36.884Z,46.61
2019-04-10T21:03:04.992Z,46.57
2019-04-10T21:05:33.774Z,46.67
2019-04-10T21:08:02.165Z,46.07
2019-04-10T21:10:40.859Z,46.58
2019-04-10T21:13:09.072Z,46.52
2019-04-10T21:15:37.597Z,46.69
2019-04-10T21:18:06.791Z,46.73
2019-04-10T21:20:34.985Z,46.57
2019-04-10T21:23:03.482Z,46.77
2019-04-10T21:25:32.942Z,46.87
2019-04-10T21:28:01.026Z,46.71
2019-04-10T21:30:38.219Z,46.63
2019-04-10T21:33:25.508Z,46.81
2019-04-10T21:35:54.149Z,46.76
2019-04-10T21:38:23.479Z,47.00
2019-04-10T21:40:51.808Z,46.95
2019-04-10T21:43:20.306Z,46.77
2019-04-10T21:45:50.263Z,46.95
2019-04-10T21:48:18.892Z,47.18
2019-04-10T21:50:47.091Z,46.93
2019-04-10T21:53:16.471Z,46.83
2019-04-10T21:55:45.771Z,46.88
2019-04-10T21:58:14.466Z,46.93
2019-04-10T22:01:01.363Z,47.08
2019-04-10T22:03:29.843Z,47.02
2019-04-10T22:06:23.953Z,46.95
2019-04-10T22:09:04.101Z,47.12
2019-04-10T22:11:32.947Z,47.33
2019-04-10T22:14:01.126Z,47.33
2019-04-10T22:16:30.284Z,47.36
2019-04-10T22:18:58.453Z,47.50
2019-04-10T22:21:29.181Z,47.51
2019-04-10T22:23:57.345Z,47.61
2019-04-10T22:26:26.166Z,47.61
2019-04-10T22:28:54.835Z,47.65
2019-04-10T22:31:23.786Z,47.57
2019-04-10T22:33:52.352Z,47.73
2019-04-10T22:36:20.824Z,47.64
2019-04-10T22:38:49.688Z,47.78
2019-04-10T22:41:26.445Z,47.93
2019-04-10T22:43:49.908Z,47.91
2019-04-10T22:46:19.206Z,47.97
2019-04-10T22:48:47.946Z,48.01
2019-04-10T22:51:17.070Z,48.08
2019-04-10T22:53:45.850Z,48.24
2019-04-10T22:56:15.025Z,48.22
2019-04-10T22:58:44.160Z,48.35
2019-04-10T23:01:13.150Z,48.09
2019-04-10T23:03:41.694Z,48.47
2019-04-10T23:06:09.696Z,48.51
2019-04-10T23:08:37.986Z,48.39
2019-04-10T23:11:06.323Z,48.25
2019-04-10T23:13:34.304Z,48.56
2019-04-10T23:16:08.102Z,48.81
2019-04-10T23:18:37.250Z,48.67
2019-04-10T23:21:06.119Z,48.49
2019-04-10T23:23:34.901Z,48.59
2019-04-10T23:26:02.898Z,48.75
2019-04-10T23:28:31.564Z,48.86
2019-04-10T23:30:59.777Z,48.90
2019-04-10T23:33:28.137Z,48.84
2019-04-10T23:35:56.387Z,48.96
2019-04-10T23:38:25.643Z,48.73
2019-04-10T23:40:53.845Z,48.75
2019-04-10T23:43:22.691Z,48.73
2019-04-10T23:45:52.060Z,48.84
2019-04-10T23:48:22.527Z,48.54
2019-04-10T23:50:50.835Z,48.70
2019-04-10T23:53:18.839Z,48.62
2019-04-10T23:55:46.645Z,48.72
2019-04-10T23:58:14.521Z,48.83
